Time;durP1;ratioP1;P1;durP2;ratioP2;P2;SDS_P1;SDS_P2;PMS_P1;PMS_P2;Temp;Humidity;BMP_temperature;BMP_pressure;BME280_temperature;BME280_humidity;BME280_pressure;Samples;Min_cycle;Max_cycle;Signal;HPM_P1;HPM_P2
2023/04/03 00:00:28;;;;;;;14.07;8.73;;;10.10;99.90;;;;;;5075510;28;20024;-82
2023/04/03 00:02:54;;;;;;;15.65;9.38;;;10.00;99.90;;;;;;5112060;28;20106;-84
2023/04/03 00:05:20;;;;;;;13.75;8.98;;;9.80;99.90;;;;;;5129530;28;20110;-85
2023/04/03 00:07:46;;;;;;;14.45;8.73;;;9.70;99.90;;;;;;5113890;28;20449;-83
2023/04/03 00:10:12;;;;;;;15.57;8.48;;;9.60;99.90;;;;;;5113799;28;20012;-83
2023/04/03 00:12:38;;;;;;;17.02;8.85;;;9.50;99.90;;;;;;5129449;28;20034;-82
2023/04/03 00:15:04;;;;;;;14.57;8.90;;;9.40;99.90;;;;;;5111431;28;20020;-81
2023/04/03 00:17:30;;;;;;;12.38;8.00;;;9.30;99.90;;;;;;5075569;28;20051;-83
2023/04/03 00:19:55;;;;;;;14.90;9.02;;;9.10;99.90;;;;;;5096380;28;20058;-83
2023/04/03 00:22:21;;;;;;;14.27;7.55;;;9.10;99.90;;;;;;5079454;28;20082;-81
2023/04/03 00:24:47;;;;;;;12.23;7.50;;;9.00;99.90;;;;;;5102589;28;20040;-79
2023/04/03 00:27:13;;;;;;;12.07;6.63;;;9.00;99.90;;;;;;5117397;28;20094;-82
2023/04/03 00:29:39;;;;;;;18.13;8.45;;;8.90;99.90;;;;;;5082097;28;20024;-80
2023/04/03 00:32:04;;;;;;;15.38;8.38;;;8.90;99.90;;;;;;5079144;28;20034;-82
2023/04/03 00:34:30;;;;;;;15.48;8.45;;;8.90;99.90;;;;;;5097364;28;20028;-83
2023/04/03 00:36:57;;;;;;;16.27;8.25;;;8.90;99.90;;;;;;5097470;28;20024;-82
2023/04/03 00:39:23;;;;;;;17.90;9.55;;;8.90;99.90;;;;;;5097583;28;20024;-82
2023/04/03 00:41:48;;;;;;;12.52;8.02;;;8.90;99.90;;;;;;5107250;28;20065;-84
2023/04/03 00:44:22;;;;;;;16.10;9.32;;;8.80;99.90;;;;;;5099620;28;20088;-81
2023/04/03 00:46:48;;;;;;;14.50;10.27;;;8.70;99.90;;;;;;5117069;28;20411;-83
2023/04/03 00:49:14;;;;;;;15.45;8.75;;;8.60;99.90;;;;;;5099228;28;20446;-82
2023/04/03 00:51:40;;;;;;;22.25;8.52;;;8.60;99.90;;;;;;5118174;27;20027;-84
2023/04/03 00:54:07;;;;;;;16.55;7.95;;;8.50;99.90;;;;;;5078559;28;20032;-82
2023/04/03 00:56:36;;;;;;;17.73;8.52;;;8.40;99.90;;;;;;5078892;28;20114;-83
2023/04/03 00:59:13;;;;;;;20.98;8.73;;;8.30;99.90;;;;;;5096748;28;20020;-82
2023/04/03 01:01:39;;;;;;;14.43;8.25;;;8.30;99.90;;;;;;5078018;28;20074;-82
2023/04/03 01:04:06;;;;;;;15.25;8.45;;;8.20;99.90;;;;;;5096733;28;20028;-84
2023/04/03 01:06:37;;;;;;;15.52;9.25;;;8.20;99.90;;;;;;5078615;28;20020;-83
2023/04/03 01:09:04;;;;;;;16.45;9.68;;;8.10;99.90;;;;;;5078271;28;20053;-83
2023/04/03 01:11:30;;;;;;;14.77;8.65;;;8.00;99.90;;;;;;5078557;28;20454;-84
2023/04/03 01:13:55;;;;;;;13.95;7.53;;;8.00;99.90;;;;;;5096329;28;20031;-81
2023/04/03 01:16:22;;;;;;;13.88;8.32;;;7.90;99.90;;;;;;5095912;28;20020;-81
2023/04/03 01:18:47;;;;;;;14.63;7.75;;;7.90;99.90;;;;;;5096550;28;20069;-84
2023/04/03 01:21:37;;;;;;;19.88;9.07;;;7.90;99.90;;;;;;5078415;28;20024;-82
2023/04/03 01:24:16;;;;;;;17.67;8.82;;;8.00;99.90;;;;;;5078058;28;20409;-83
2023/04/03 01:26:43;;;;;;;15.95;9.43;;;7.90;99.90;;;;;;5078862;28;20093;-82
2023/04/03 01:29:09;;;;;;;16.85;8.38;;;7.80;99.90;;;;;;5084539;28;20016;-83
2023/04/03 01:31:35;;;;;;;13.57;8.48;;;7.90;99.90;;;;;;5088334;28;20023;-83
2023/04/03 01:34:02;;;;;;;14.93;8.68;;;7.80;99.90;;;;;;5080980;28;20028;-83
2023/04/03 01:36:30;;;;;;;17.60;9.95;;;7.80;99.90;;;;;;5077712;28;20028;-83
2023/04/03 01:38:58;;;;;;;14.98;8.73;;;7.70;99.90;;;;;;5096407;28;20020;-83
2023/04/03 01:41:23;;;;;;;14.35;9.32;;;7.60;99.90;;;;;;5096457;28;20020;-84
2023/04/03 01:43:49;;;;;;;15.45;8.65;;;7.60;99.90;;;;;;5077684;28;20081;-81
2023/04/03 01:46:19;;;;;;;13.48;8.07;;;7.60;99.90;;;;;;5077927;28;20024;-83
2023/04/03 01:48:45;;;;;;;16.10;8.70;;;7.70;99.90;;;;;;5095749;28;20074;-82
2023/04/03 01:51:11;;;;;;;16.35;8.75;;;7.60;99.90;;;;;;5077524;28;20032;-84
2023/04/03 01:53:37;;;;;;;14.32;8.70;;;7.60;99.90;;;;;;5095961;28;20027;-83
2023/04/03 01:56:03;;;;;;;15.43;8.90;;;7.60;99.90;;;;;;5096256;28;20035;-83
2023/04/03 01:58:29;;;;;;;16.60;8.68;;;7.50;99.90;;;;;;5077385;28;20020;-83
2023/04/03 02:00:55;;;;;;;16.02;8.45;;;7.50;99.90;;;;;;5077344;28;20374;-81
2023/04/03 02:03:21;;;;;;;14.05;8.18;;;7.60;99.90;;;;;;5077565;28;20479;-82
2023/04/03 02:05:47;;;;;;;16.08;8.30;;;7.60;99.90;;;;;;5095396;28;20051;-82
2023/04/03 02:08:13;;;;;;;12.77;7.80;;;7.60;99.90;;;;;;5095670;28;20047;-83
2023/04/03 02:10:39;;;;;;;16.23;9.27;;;7.50;99.90;;;;;;5077436;28;20024;-83
2023/04/03 02:13:05;;;;;;;14.98;8.43;;;7.50;99.90;;;;;;5077014;28;20077;-82
2023/04/03 02:15:31;;;;;;;16.92;8.88;;;7.50;99.90;;;;;;5095567;28;20101;-83
2023/04/03 02:17:57;;;;;;;16.85;9.15;;;7.60;99.90;;;;;;5094884;28;20458;-82
2023/04/03 02:20:22;;;;;;;16.20;8.75;;;7.60;99.90;;;;;;5077189;28;20515;-82
2023/04/03 02:22:48;;;;;;;16.88;8.10;;;7.70;99.90;;;;;;5095095;28;20024;-82
2023/04/03 02:25:14;;;;;;;16.35;8.55;;;7.60;99.90;;;;;;5076608;28;20024;-84
2023/04/03 02:27:40;;;;;;;13.50;7.55;;;7.60;99.90;;;;;;5094882;28;20016;-83
2023/04/03 02:30:07;;;;;;;15.20;7.82;;;7.60;99.90;;;;;;5077072;28;20024;-83
2023/04/03 02:32:32;;;;;;;13.70;8.18;;;7.60;99.90;;;;;;5094764;28;20031;-84
2023/04/03 02:34:58;;;;;;;13.13;7.43;;;7.60;99.90;;;;;;5076938;28;20024;-83
2023/04/03 02:37:24;;;;;;;13.10;8.20;;;7.50;99.90;;;;;;5076901;28;20066;-84
2023/04/03 02:39:50;;;;;;;11.85;6.60;;;7.50;99.90;;;;;;5076545;28;20481;-83
2023/04/03 02:42:15;;;;;;;14.13;7.88;;;7.50;99.90;;;;;;5076208;28;20052;-81
2023/04/03 02:44:41;;;;;;;15.07;8.10;;;7.50;99.90;;;;;;5076736;28;20028;-84
2023/04/03 02:47:07;;;;;;;12.90;7.65;;;7.50;99.90;;;;;;5076352;28;20031;-82
2023/04/03 02:49:33;;;;;;;15.50;8.13;;;7.50;99.90;;;;;;5094540;28;20450;-84
2023/04/03 02:51:59;;;;;;;11.45;6.85;;;7.50;99.90;;;;;;5076354;28;20020;-82
2023/04/03 02:54:28;;;;;;;14.25;8.30;;;7.50;99.90;;;;;;5094158;28;20024;-84
2023/04/03 02:56:54;;;;;;;16.83;8.10;;;7.50;99.90;;;;;;5076531;28;20115;-83
2023/04/03 02:59:20;;;;;;;17.08;8.70;;;7.50;99.90;;;;;;5076443;28;20051;-83
2023/04/03 03:01:46;;;;;;;14.88;8.85;;;7.50;99.90;;;;;;5093922;28;20047;-82
2023/04/03 03:04:12;;;;;;;16.80;8.65;;;7.40;99.90;;;;;;5076383;28;20069;-83
2023/04/03 03:06:37;;;;;;;17.42;9.23;;;7.40;99.90;;;;;;5076334;28;20028;-82
2023/04/03 03:09:03;;;;;;;16.35;9.35;;;7.30;99.90;;;;;;5093895;28;20016;-83
2023/04/03 03:11:30;;;;;;;16.08;8.95;;;7.30;99.90;;;;;;5094496;28;20408;-82
2023/04/03 03:13:56;;;;;;;13.63;8.48;;;7.30;99.90;;;;;;5075241;28;20043;-84
2023/04/03 03:16:21;;;;;;;17.42;9.07;;;7.30;99.90;;;;;;5093787;28;20020;-82
2023/04/03 03:18:47;;;;;;;17.80;9.52;;;7.30;99.90;;;;;;5094091;28;20062;-83
2023/04/03 03:21:13;;;;;;;19.05;9.80;;;7.40;99.90;;;;;;5075447;28;20020;-82
2023/04/03 03:23:39;;;;;;;16.48;10.18;;;7.40;99.90;;;;;;5093551;28;20020;-82
2023/04/03 03:26:08;;;;;;;17.38;9.10;;;7.30;99.90;;;;;;5075653;28;20070;-84
2023/04/03 03:28:35;;;;;;;17.45;9.55;;;7.30;99.90;;;;;;5075337;28;20055;-82
2023/04/03 03:31:01;;;;;;;14.95;8.60;;;7.20;99.90;;;;;;5094143;28;20576;-84
2023/04/03 03:33:27;;;;;;;17.17;9.65;;;7.20;99.90;;;;;;5075224;28;20102;-83
2023/04/03 03:35:54;;;;;;;19.00;10.93;;;7.20;99.90;;;;;;5075130;28;20024;-83
2023/04/03 03:38:20;;;;;;;17.02;9.30;;;7.20;99.90;;;;;;5093742;28;20020;-84
2023/04/03 03:40:48;;;;;;;17.55;10.10;;;7.10;99.90;;;;;;5075343;28;20173;-82
2023/04/03 03:43:14;;;;;;;19.80;10.65;;;7.10;99.90;;;;;;5074968;28;20373;-83
2023/04/03 03:45:40;;;;;;;20.35;11.15;;;7.10;99.90;;;;;;5075830;28;20031;-84
2023/04/03 03:48:06;;;;;;;21.05;10.57;;;7.10;99.90;;;;;;5075984;28;20020;-83
2023/04/03 03:50:32;;;;;;;20.60;10.05;;;7.10;99.90;;;;;;5075508;28;20026;-84
2023/04/03 03:52:58;;;;;;;17.95;9.90;;;7.10;99.90;;;;;;5075823;28;20115;-82
2023/04/03 03:55:23;;;;;;;15.80;10.73;;;7.10;99.90;;;;;;5079698;28;20740;-83
2023/04/03 03:57:49;;;;;;;14.52;8.90;;;7.00;99.90;;;;;;5079660;28;20058;-82
2023/04/03 04:00:15;;;;;;;20.33;13.63;;;7.00;99.90;;;;;;5098108;28;20446;-85
2023/04/03 04:02:42;;;;;;;21.27;9.95;;;6.90;99.90;;;;;;5079293;28;20047;-82
2023/04/03 04:05:08;;;;;;;22.23;11.65;;;6.90;99.90;;;;;;5079893;28;20020;-83
2023/04/03 04:07:34;;;;;;;17.88;10.32;;;7.00;99.90;;;;;;5079757;28;20077;-84
2023/04/03 04:10:00;;;;;;;19.60;9.73;;;7.00;99.90;;;;;;5079509;28;20016;-83
2023/04/03 04:12:26;;;;;;;20.30;12.75;;;6.90;99.90;;;;;;5079690;28;20093;-83
2023/04/03 04:14:51;;;;;;;21.13;11.32;;;7.00;99.90;;;;;;5097083;28;20451;-83
2023/04/03 04:17:17;;;;;;;25.40;10.90;;;6.90;99.90;;;;;;5097087;28;20047;-84
2023/04/03 04:19:43;;;;;;;19.77;10.18;;;6.90;99.90;;;;;;5078943;28;20072;-86
2023/04/03 04:22:09;;;;;;;17.95;9.75;;;6.90;99.90;;;;;;5078837;28;20027;-84
2023/04/03 04:24:35;;;;;;;20.88;10.63;;;6.80;99.90;;;;;;5078543;28;20020;-83
2023/04/03 04:27:00;;;;;;;19.65;10.35;;;6.70;99.90;;;;;;5078793;28;20028;-84
2023/04/03 04:29:26;;;;;;;22.40;12.25;;;6.70;99.90;;;;;;5078667;28;20028;-84
2023/04/03 04:31:52;;;;;;;28.83;13.80;;;6.60;99.90;;;;;;5095788;28;20023;-83
2023/04/03 04:34:17;;;;;;;26.67;13.27;;;6.60;99.90;;;;;;5078417;28;20028;-83
2023/04/03 04:36:43;;;;;;;29.35;13.30;;;6.50;99.90;;;;;;5078422;28;20028;-83
2023/04/03 04:39:09;;;;;;;31.52;14.65;;;6.30;99.90;;;;;;5078358;28;20028;-82
2023/04/03 04:41:35;;;;;;;28.20;13.38;;;6.20;99.90;;;;;;5078721;28;20054;-84
2023/04/03 04:44:00;;;;;;;26.20;13.32;;;6.20;99.90;;;;;;5078491;28;20030;-84
2023/04/03 04:46:26;;;;;;;23.20;11.48;;;6.10;99.90;;;;;;5078276;28;20339;-84
2023/04/03 04:48:52;;;;;;;28.35;14.13;;;6.00;99.90;;;;;;5095690;28;20016;-83
2023/04/03 04:51:18;;;;;;;26.45;13.98;;;6.00;99.90;;;;;;5078388;28;20016;-83
2023/04/03 04:53:44;;;;;;;30.30;15.02;;;6.00;99.90;;;;;;5078179;28;20059;-83
2023/04/03 04:56:10;;;;;;;30.05;14.55;;;6.10;99.90;;;;;;5078684;28;20065;-83
2023/04/03 04:58:36;;;;;;;24.88;13.25;;;6.10;99.90;;;;;;5079120;28;20106;-85
2023/04/03 05:01:05;;;;;;;23.63;12.38;;;6.00;99.90;;;;;;5078188;28;20036;-84
2023/04/03 05:03:31;;;;;;;28.48;13.32;;;6.00;99.90;;;;;;5079009;28;20020;-85
2023/04/03 05:05:57;;;;;;;29.95;13.45;;;6.10;99.90;;;;;;5078121;28;20093;-82
2023/04/03 05:08:23;;;;;;;29.40;13.52;;;6.10;99.90;;;;;;5078651;28;20078;-83
2023/04/03 05:10:48;;;;;;;37.35;14.10;;;6.10;99.90;;;;;;5078640;28;20031;-83
2023/04/03 05:13:14;;;;;;;26.30;13.13;;;6.20;99.90;;;;;;5078223;28;20462;-83
2023/04/03 05:15:40;;;;;;;33.15;13.77;;;6.20;99.90;;;;;;5077911;28;20527;-84
2023/04/03 05:18:06;;;;;;;35.42;15.43;;;6.20;99.90;;;;;;5077772;28;20024;-82
2023/04/03 05:20:33;;;;;;;41.92;17.80;;;6.20;99.90;;;;;;5095573;28;20020;-83
2023/04/03 05:22:59;;;;;;;56.25;22.27;;;6.00;99.90;;;;;;5095992;28;20458;-82
2023/04/03 05:25:25;;;;;;;38.50;18.55;;;5.90;99.90;;;;;;5077929;28;20020;-83
2023/04/03 05:27:51;;;;;;;33.22;17.58;;;5.90;99.90;;;;;;5077349;28;20016;-83
2023/04/03 05:30:17;;;;;;;33.42;14.27;;;5.80;99.90;;;;;;5077796;28;20024;-83
2023/04/03 05:32:43;;;;;;;31.30;14.55;;;5.70;99.90;;;;;;5077571;28;20037;-81
2023/04/03 05:35:10;;;;;;;31.13;14.85;;;5.70;99.90;;;;;;5077025;28;20028;-80
2023/04/03 05:37:36;;;;;;;34.17;17.23;;;5.70;99.90;;;;;;5077280;28;20016;-82
2023/04/03 05:40:06;;;;;;;34.30;16.17;;;5.70;99.90;;;;;;5077471;28;20020;-81
2023/04/03 05:42:32;;;;;;;40.88;18.52;;;5.70;99.90;;;;;;5095478;28;20111;-81
2023/04/03 05:44:58;;;;;;;46.90;22.65;;;5.70;99.90;;;;;;5077348;28;20114;-84
2023/04/03 05:47:24;;;;;;;39.92;20.05;;;5.70;99.90;;;;;;5077805;28;20016;-82
2023/04/03 05:49:50;;;;;;;39.33;18.90;;;5.60;99.90;;;;;;5077482;28;20020;-82
2023/04/03 05:52:23;;;;;;;41.45;18.58;;;5.60;99.90;;;;;;5077874;28;20020;-84
2023/04/03 05:54:48;;;;;;;39.42;19.08;;;5.50;99.90;;;;;;5096045;28;20024;-82
2023/04/03 05:57:15;;;;;;;43.05;19.45;;;5.50;99.90;;;;;;5077730;28;20416;-84
2023/04/03 05:59:42;;;;;;;39.47;18.92;;;5.50;99.90;;;;;;5077706;28;20027;-83
2023/04/03 06:02:12;;;;;;;41.58;18.58;;;5.50;99.90;;;;;;5076841;28;20032;-81
2023/04/03 06:04:38;;;;;;;41.78;16.63;;;5.50;99.90;;;;;;5077442;28;20474;-85
2023/04/03 06:07:03;;;;;;;45.00;20.95;;;5.50;99.90;;;;;;5077546;28;20031;-80
2023/04/03 06:09:30;;;;;;;55.58;26.23;;;5.40;99.90;;;;;;5077375;28;20035;-82
2023/04/03 06:11:58;;;;;;;54.92;25.88;;;5.40;99.90;;;;;;5077416;28;20019;-81
2023/04/03 06:14:24;;;;;;;50.08;24.00;;;5.40;99.90;;;;;;5077405;28;20709;-84
2023/04/03 06:16:50;;;;;;;34.70;18.90;;;5.50;99.90;;;;;;5075682;28;20362;-81
2023/04/03 06:19:16;;;;;;;31.85;16.20;;;5.40;99.90;;;;;;5095112;28;20016;-84
2023/04/03 06:21:42;;;;;;;44.47;22.15;;;5.40;99.90;;;;;;5094852;28;20089;-82
2023/04/03 06:24:08;;;;;;;40.78;18.88;;;5.40;99.90;;;;;;5076170;28;20466;-80
2023/04/03 06:26:34;;;;;;;42.17;20.05;;;5.40;99.90;;;;;;5077131;28;20059;-82
2023/04/03 06:29:00;;;;;;;51.55;21.52;;;5.30;99.90;;;;;;5094819;28;20027;-83
2023/04/03 06:31:25;;;;;;;40.92;19.83;;;5.30;99.90;;;;;;5094439;28;20017;-83
2023/04/03 06:33:51;;;;;;;36.70;18.00;;;5.30;99.90;;;;;;5094576;28;20020;-81
2023/04/03 06:36:20;;;;;;;38.72;18.02;;;5.30;99.90;;;;;;5076020;28;20035;-81
2023/04/03 06:38:46;;;;;;;29.55;15.32;;;5.40;99.90;;;;;;5093994;28;20028;-82
2023/04/03 06:41:12;;;;;;;28.88;14.60;;;5.30;99.90;;;;;;5076216;28;20064;-82
2023/04/03 06:43:38;;;;;;;23.23;12.23;;;5.30;99.90;;;;;;5093817;28;20063;-82
2023/04/03 06:46:04;;;;;;;27.38;13.93;;;5.30;99.90;;;;;;5069065;28;20016;-82
2023/04/03 06:48:30;;;;;;;25.08;12.75;;;5.40;99.90;;;;;;5075983;28;20020;-82
2023/04/03 06:50:56;;;;;;;22.05;12.13;;;5.30;99.90;;;;;;5075744;28;20024;-84
2023/04/03 06:53:22;;;;;;;30.95;14.73;;;5.30;99.90;;;;;;5091100;28;20043;-83
2023/04/03 06:55:48;;;;;;;25.73;12.35;;;5.40;99.90;;;;;;5094514;28;20036;-82
2023/04/03 06:58:15;;;;;;;23.83;13.10;;;5.40;99.90;;;;;;5074895;28;20024;-83
2023/04/03 07:00:41;;;;;;;27.42;14.00;;;5.40;99.90;;;;;;5093636;28;20035;-82
2023/04/03 07:03:07;;;;;;;27.50;14.10;;;5.40;99.90;;;;;;5075814;28;20031;-81
2023/04/03 07:05:34;;;;;;;19.10;10.90;;;5.50;99.90;;;;;;5066058;28;20050;-81
2023/04/03 07:08:00;;;;;;;24.58;12.55;;;5.50;99.90;;;;;;5076330;28;20024;-82
2023/04/03 07:10:26;;;;;;;18.80;10.07;;;5.50;99.90;;;;;;5076152;28;20031;-84
2023/04/03 07:12:52;;;;;;;24.52;12.90;;;5.40;99.90;;;;;;5075970;28;20028;-85
2023/04/03 07:15:18;;;;;;;37.10;20.02;;;5.50;99.90;;;;;;5094194;28;20097;-81
2023/04/03 07:17:44;;;;;;;33.67;16.27;;;5.50;99.90;;;;;;5076193;28;20111;-80
2023/04/03 07:20:10;;;;;;;33.40;16.65;;;5.60;99.90;;;;;;5077360;28;20412;-86
2023/04/03 07:22:36;;;;;;;40.45;20.60;;;5.50;99.90;;;;;;5094067;28;20024;-83
2023/04/03 07:25:03;;;;;;;37.50;19.27;;;5.50;99.90;;;;;;5076118;28;20020;-81
2023/04/03 07:27:28;;;;;;;29.25;14.95;;;5.60;99.90;;;;;;5094169;28;20035;-82
2023/04/03 07:29:55;;;;;;;27.38;14.25;;;5.70;99.90;;;;;;5093538;28;20016;-80
2023/04/03 07:32:21;;;;;;;32.92;16.38;;;5.60;99.90;;;;;;5075907;28;20028;-80
2023/04/03 07:34:47;;;;;;;23.38;13.07;;;5.70;99.90;;;;;;5093961;28;20473;-81
2023/04/03 07:37:13;;;;;;;38.67;19.30;;;5.80;99.90;;;;;;5075293;28;20378;-81
2023/04/03 07:39:38;;;;;;;48.25;25.23;;;5.80;99.90;;;;;;5074887;28;20031;-80
2023/04/03 07:42:04;;;;;;;42.92;21.48;;;5.90;99.90;;;;;;5075493;28;20024;-82
2023/04/03 07:44:30;;;;;;;40.03;20.55;;;6.00;99.90;;;;;;5074853;28;20020;-81
2023/04/03 07:46:56;;;;;;;59.35;27.60;;;6.00;99.90;;;;;;5093299;28;20078;-82
2023/04/03 07:49:26;;;;;;;95.38;45.92;;;6.10;99.90;;;;;;5093515;28;20047;-81
2023/04/03 07:51:52;;;;;;;113.53;53.33;;;6.20;99.90;;;;;;5093167;28;20442;-83
2023/04/03 07:54:18;;;;;;;158.85;70.70;;;6.30;99.90;;;;;;5074775;28;20454;-83
2023/04/03 07:56:44;;;;;;;85.72;39.55;;;6.50;99.90;;;;;;5093632;28;20078;-81
2023/04/03 07:59:11;;;;;;;101.28;51.75;;;6.60;99.90;;;;;;5075413;28;20067;-80
2023/04/03 08:01:37;;;;;;;80.13;44.20;;;6.60;99.90;;;;;;5093359;28;20119;-79
2023/04/03 08:04:03;;;;;;;76.55;36.63;;;6.60;99.90;;;;;;5092937;28;20344;-82
2023/04/03 08:06:31;;;;;;;60.60;27.35;;;6.70;99.90;;;;;;5093297;28;20095;-80
2023/04/03 08:08:58;;;;;;;41.42;20.33;;;6.80;99.90;;;;;;5076072;28;20504;-82
2023/04/03 08:11:26;;;;;;;47.38;22.52;;;6.70;99.90;;;;;;5074966;28;20020;-83
2023/04/03 08:13:52;;;;;;;82.90;36.63;;;6.70;99.90;;;;;;5092223;28;20031;-81
2023/04/03 08:16:21;;;;;;;71.72;32.80;;;6.80;99.90;;;;;;5075569;28;20024;-83
2023/04/03 08:18:48;;;;;;;54.13;24.48;;;6.90;99.90;;;;;;5093365;28;20077;-82
2023/04/03 08:21:14;;;;;;;50.33;23.73;;;6.90;99.90;;;;;;5081356;28;20026;-80
2023/04/03 08:23:41;;;;;;;49.67;21.98;;;6.90;99.90;;;;;;5103005;28;20032;-81
2023/04/03 08:26:13;;;;;;;47.03;24.15;;;6.90;99.90;;;;;;5083246;28;20023;-82
2023/04/03 08:28:39;;;;;;;49.88;22.45;;;7.00;99.90;;;;;;5075338;28;20035;-82
2023/04/03 08:31:07;;;;;;;41.42;22.27;;;7.00;99.90;;;;;;5094507;28;20020;-85
2023/04/03 08:33:35;;;;;;;41.05;21.05;;;7.00;99.90;;;;;;5110751;28;20100;-82
2023/04/03 08:36:01;;;;;;;36.85;19.52;;;7.10;99.90;;;;;;5093006;28;20028;-83
2023/04/03 08:38:27;;;;;;;34.50;18.70;;;7.10;99.90;;;;;;5074837;28;20023;-82
2023/04/03 08:41:16;;;;;;;36.92;18.35;;;7.10;99.90;;;;;;5076905;28;20024;-81
2023/04/03 08:43:50;;;;;;;34.53;20.00;;;7.20;99.90;;;;;;5078692;28;20119;-80
2023/04/03 08:46:21;;;;;;;32.42;17.95;;;7.30;99.90;;;;;;5076477;28;20025;-81
2023/04/03 08:48:50;;;;;;;41.47;20.52;;;7.40;99.90;;;;;;5067107;28;20042;-80
2023/04/03 08:51:19;;;;;;;39.30;20.20;;;7.50;99.90;;;;;;5096936;28;20370;-80
2023/04/03 08:54:14;;;;;;;29.88;15.65;;;7.70;99.90;;;;;;5078602;28;20020;-83
2023/04/03 08:56:40;;;;;;;30.40;17.27;;;7.60;99.90;;;;;;5097161;28;20030;-80
2023/04/03 08:59:13;;;;;;;29.40;15.63;;;7.60;99.90;;;;;;5078873;28;20362;-80
2023/04/03 09:01:41;;;;;;;30.67;16.35;;;7.60;99.90;;;;;;5078472;28;20101;-85
2023/04/03 09:04:13;;;;;;;31.13;16.23;;;7.60;99.90;;;;;;5087448;28;20457;-81
2023/04/03 09:06:42;;;;;;;29.23;15.85;;;7.60;99.90;;;;;;5098693;28;20019;-83
2023/04/03 09:09:44;;;;;;;29.25;15.18;;;7.60;99.90;;;;;;5116877;28;20027;-82
2023/04/03 09:12:26;;;;;;;34.03;17.88;;;7.80;99.90;;;;;;5116942;28;20392;-86
2023/04/03 09:15:16;;;;;;;38.90;20.08;;;7.90;99.90;;;;;;5096757;28;20039;-81
2023/04/03 09:18:19;;;;;;;38.25;20.85;;;8.00;99.90;;;;;;5078697;28;20020;-83
2023/04/03 09:21:03;;;;;;;38.25;18.33;;;8.10;99.90;;;;;;5077805;28;20024;-85
2023/04/03 09:23:36;;;;;;;27.77;14.73;;;8.10;99.90;;;;;;5078052;28;20092;-83
2023/04/03 09:26:17;;;;;;;26.52;15.20;;;8.20;99.90;;;;;;5078367;28;20086;-82
2023/04/03 09:28:44;;;;;;;28.73;14.95;;;8.40;99.90;;;;;;5096376;28;20020;-82
2023/04/03 09:31:22;;;;;;;24.67;12.60;;;8.70;99.90;;;;;;5078280;28;20020;-83
2023/04/03 09:33:51;;;;;;;24.65;15.77;;;8.90;99.90;;;;;;5095893;28;20107;-82
2023/04/03 09:36:42;;;;;;;27.20;13.52;;;8.80;99.90;;;;;;5095521;28;20020;-82
2023/04/03 09:39:14;;;;;;;23.40;12.93;;;8.90;99.90;;;;;;5071937;28;20024;-82
2023/04/03 09:41:40;;;;;;;25.20;14.23;;;9.10;99.90;;;;;;5074126;28;20037;-81
2023/04/03 09:44:21;;;;;;;24.55;12.00;;;9.10;99.90;;;;;;5076334;28;20370;-82
2023/04/03 09:46:47;;;;;;;28.93;14.83;;;9.20;99.90;;;;;;5076338;28;20031;-82
2023/04/03 09:49:13;;;;;;;21.58;14.13;;;9.10;99.90;;;;;;5094288;28;20024;-81
2023/04/03 09:51:40;;;;;;;22.65;13.43;;;9.50;99.90;;;;;;5095037;28;20354;-82
2023/04/03 09:54:40;;;;;;;17.10;10.95;;;10.10;99.90;;;;;;5094736;28;20016;-81
2023/04/03 09:57:13;;;;;;;24.27;11.95;;;10.50;99.90;;;;;;5013237;28;20527;-80
2023/04/03 09:59:47;;;;;;;30.65;13.50;;;10.50;99.90;;;;;;5013610;28;20038;-82
2023/04/03 10:02:35;;;;;;;28.88;14.48;;;10.30;99.90;;;;;;4996984;28;20420;-82
2023/04/03 10:05:02;;;;;;;21.92;12.27;;;10.50;99.90;;;;;;4996733;28;20030;-81
2023/04/03 10:07:37;;;;;;;26.48;13.25;;;10.50;99.90;;;;;;4996976;28;20595;-81
2023/04/03 10:10:14;;;;;;;29.00;13.82;;;10.00;99.90;;;;;;5013420;28;20049;-84
2023/04/03 10:12:40;;;;;;;24.42;12.43;;;9.80;99.90;;;;;;5013360;28;20038;-82
2023/04/03 10:15:18;;;;;;;20.77;11.85;;;9.90;99.90;;;;;;4996788;28;20052;-81
2023/04/03 10:17:57;;;;;;;42.97;20.23;;;9.90;99.90;;;;;;5012979;28;20022;-81
2023/04/03 10:21:02;;;;;;;58.42;28.42;;;9.90;99.90;;;;;;5013522;28;20512;-83
2023/04/03 10:23:38;;;;;;;33.05;17.77;;;9.50;99.90;;;;;;4982535;28;20030;-83
2023/04/03 10:26:39;;;;;;;52.42;23.95;;;9.20;99.90;;;;;;5012855;28;20033;-82
2023/04/03 10:29:23;;;;;;;39.25;20.85;;;9.10;99.90;;;;;;5013094;28;20075;-81
2023/04/03 10:32:23;;;;;;;30.35;14.68;;;9.00;99.90;;;;;;5009478;28;20028;-83
2023/04/03 10:35:01;;;;;;;29.80;15.25;;;9.00;99.90;;;;;;5077151;28;20382;-81
2023/04/03 10:37:36;;;;;;;21.55;12.85;;;9.40;99.90;;;;;;5077051;28;20024;-82
2023/04/03 10:40:32;;;;;;;24.08;12.52;;;9.40;99.90;;;;;;5076742;28;20366;-84
2023/04/03 10:43:13;;;;;;;28.52;15.40;;;9.60;99.90;;;;;;5072965;28;20035;-81
2023/04/03 10:45:52;;;;;;;20.75;11.70;;;9.50;99.90;;;;;;5076421;28;20027;-78
2023/04/03 10:48:37;;;;;;;28.42;13.80;;;9.50;99.90;;;;;;5094977;28;20071;-78
2023/04/03 10:51:35;;;;;;;28.17;14.25;;;10.00;99.90;;;;;;5094984;28;20103;-80
2023/04/03 10:54:10;;;;;;;28.75;14.00;;;10.60;99.90;;;;;;5059530;28;20039;-79
2023/04/03 10:56:44;;;;;;;22.20;12.50;;;10.70;99.90;;;;;;5094845;28;20012;-80
2023/04/03 10:59:24;;;;;;;32.55;15.73;;;10.70;99.90;;;;;;5094505;28;20448;-80
2023/04/03 11:02:03;;;;;;;24.23;12.45;;;10.20;99.90;;;;;;5094171;28;20047;-81
2023/04/03 11:04:34;;;;;;;28.15;13.25;;;10.00;99.90;;;;;;5094344;28;20077;-79
2023/04/03 11:07:11;;;;;;;24.37;13.70;;;9.70;99.90;;;;;;5094198;28;20051;-79
2023/04/03 11:09:43;;;;;;;28.50;14.63;;;9.50;99.90;;;;;;5076710;28;20077;-78
2023/04/03 11:12:43;;;;;;;31.05;15.38;;;9.90;99.90;;;;;;5076369;28;20366;-79
2023/04/03 11:15:17;;;;;;;41.22;16.88;;;10.50;99.90;;;;;;5067790;28;20051;-79
2023/04/03 11:17:58;;;;;;;29.20;15.30;;;10.70;99.90;;;;;;5094511;28;20468;-80
2023/04/03 11:20:32;;;;;;;48.15;19.50;;;10.30;99.90;;;;;;5094133;28;20020;-79
2023/04/03 11:23:13;;;;;;;29.70;14.57;;;10.00;99.90;;;;;;5076241;28;20028;-78
2023/04/03 11:25:42;;;;;;;28.77;15.80;;;9.60;99.90;;;;;;5094756;28;20031;-79
2023/04/03 11:28:13;;;;;;;37.80;18.83;;;9.70;99.90;;;;;;5075845;28;20141;-79
2023/04/03 11:31:05;;;;;;;32.40;15.63;;;10.00;99.90;;;;;;5094417;28;20070;-79
2023/04/03 11:33:55;;;;;;;34.25;15.82;;;10.00;99.90;;;;;;5076030;28;20477;-80
2023/04/03 11:36:28;;;;;;;31.20;14.43;;;9.70;99.90;;;;;;5075760;28;20067;-79
2023/04/03 11:38:57;;;;;;;37.08;17.75;;;9.60;99.90;;;;;;5094846;28;20367;-79
2023/04/03 11:41:31;;;;;;;34.05;15.25;;;9.50;99.90;;;;;;5075627;28;20031;-80
2023/04/03 11:43:59;;;;;;;34.25;17.90;;;9.30;99.90;;;;;;5094142;28;20020;-80
2023/04/03 11:46:56;;;;;;;33.85;16.42;;;9.50;99.90;;;;;;5075887;28;20027;-80
2023/04/03 11:49:56;;;;;;;35.17;16.85;;;9.50;99.90;;;;;;5067261;28;20028;-79
2023/04/03 11:52:40;;;;;;;31.23;15.68;;;9.40;99.90;;;;;;5075806;28;20016;-80
2023/04/03 11:55:26;;;;;;;40.08;20.45;;;9.30;99.90;;;;;;5094003;28;20081;-80
2023/04/03 11:57:58;;;;;;;32.63;15.60;;;9.50;99.90;;;;;;5035329;28;20081;-80
2023/04/03 12:00:50;;;;;;;38.75;18.05;;;9.40;99.90;;;;;;5075648;28;20020;-80
2023/04/03 12:06:17;;;;;;;26.25;14.48;;;9.40;99.90;;;;;;5093863;28;20028;-81
2023/04/03 12:08:50;;;;;;;44.05;18.13;;;9.20;99.90;;;;;;5093681;28;20052;-79
2023/04/03 12:11:31;;;;;;;33.88;16.88;;;9.20;99.90;;;;;;5075418;28;20030;-80
2023/04/03 12:13:57;;;;;;;35.40;18.58;;;9.40;99.90;;;;;;5075638;28;20035;-79
2023/04/03 12:16:38;;;;;;;36.45;19.08;;;9.80;99.90;;;;;;5079028;28;20028;-80
2023/04/03 12:19:31;;;;;;;35.40;17.05;;;9.80;99.90;;;;;;5079710;28;20043;-80
2023/04/03 12:21:58;;;;;;;54.05;20.88;;;9.80;99.90;;;;;;5097789;28;20020;-79
2023/04/03 12:24:27;;;;;;;32.83;15.93;;;9.70;99.90;;;;;;5079146;28;20097;-80
2023/04/03 12:26:59;;;;;;;29.38;15.95;;;9.60;99.90;;;;;;5079458;28;20016;-79
2023/04/03 12:29:33;;;;;;;23.73;13.63;;;9.60;99.90;;;;;;5097710;28;20024;-80
2023/04/03 12:32:36;;;;;;;27.40;14.73;;;9.70;99.90;;;;;;5079111;28;20369;-79
2023/04/03 12:35:16;;;;;;;25.02;13.00;;;9.80;99.90;;;;;;5079502;28;20028;-80
2023/04/03 12:38:13;;;;;;;29.88;14.05;;;9.80;99.90;;;;;;5097211;28;20020;-80
2023/04/03 12:40:41;;;;;;;38.10;17.92;;;10.10;99.90;;;;;;5079452;28;20081;-83
2023/04/03 12:43:30;;;;;;;26.90;14.90;;;10.10;99.90;;;;;;5079176;28;20371;-81
2023/04/03 12:46:08;;;;;;;31.35;16.90;;;10.10;99.90;;;;;;5077772;28;20027;-82
2023/04/03 12:48:44;;;;;;;27.33;15.68;;;10.10;99.90;;;;;;5079168;28;20354;-82
2023/04/03 12:51:15;;;;;;;29.52;16.02;;;9.90;99.90;;;;;;5079176;28;20115;-83
2023/04/03 12:53:42;;;;;;;27.52;15.57;;;9.90;99.90;;;;;;5078920;28;20020;-82
2023/04/03 12:56:30;;;;;;;24.77;13.82;;;9.80;99.90;;;;;;5079044;28;20450;-82